Time;durP1;ratioP1;P1;durP2;ratioP2;P2;SDS_P1;SDS_P2;PMS_P1;PMS_P2;Temp;Humidity;BMP_temperature;BMP_pressure;BME280_temperature;BME280_humidity;BME280_pressure;Samples;Min_cycle;Max_cycle;Signal;HPM_P1;HPM_P2
2022/01/18 00:01:52;;;;;;;25.17;3.93;;;5.30;88.40;;;;;;4974955;28;20192;-89
2022/01/18 00:04:19;;;;;;;33.47;4.33;;;5.40;88.10;;;;;;4973344;28;20178;-88
2022/01/18 00:06:51;;;;;;;23.13;5.10;;;5.30;88.00;;;;;;4973369;28;20185;-88
2022/01/18 00:09:20;;;;;;;12.67;3.13;;;5.30;88.00;;;;;;4973403;28;20171;-88
2022/01/18 00:11:54;;;;;;;16.93;3.63;;;5.30;88.00;;;;;;4973565;28;20193;-88
2022/01/18 00:14:38;;;;;;;17.57;3.17;;;5.40;87.90;;;;;;4973531;28;20643;-87
2022/01/18 00:17:39;;;;;;;23.70;5.40;;;5.40;87.80;;;;;;4973296;28;20174;-88
2022/01/18 00:20:05;;;;;;;22.23;3.77;;;5.40;87.80;;;;;;4975352;28;20546;-88
2022/01/18 00:22:31;;;;;;;16.20;3.57;;;5.30;87.90;;;;;;4973216;28;20224;-88
2022/01/18 00:24:59;;;;;;;20.10;3.40;;;5.40;88.00;;;;;;4974467;28;20236;-88
2022/01/18 00:27:25;;;;;;;13.50;2.93;;;5.40;87.80;;;;;;4974413;28;20171;-88
2022/01/18 00:30:36;;;;;;;20.20;3.33;;;5.40;87.90;;;;;;4973125;28;20196;-88
2022/01/18 00:33:13;;;;;;;12.73;2.80;;;5.40;87.80;;;;;;4974410;28;20686;-88
2022/01/18 00:35:41;;;;;;;9.00;2.80;;;5.30;87.80;;;;;;4973426;28;20224;-88
2022/01/18 00:38:16;;;;;;;15.67;2.67;;;5.40;87.90;;;;;;4972943;28;20204;-88
2022/01/18 00:40:42;;;;;;;12.33;3.23;;;5.40;87.70;;;;;;4973142;28;20561;-88
2022/01/18 00:43:07;;;;;;;14.53;2.80;;;5.40;87.80;;;;;;4974170;28;20274;-88
2022/01/18 00:45:33;;;;;;;15.73;3.10;;;5.40;87.90;;;;;;4973767;28;20182;-88
2022/01/18 00:48:01;;;;;;;13.93;2.97;;;5.40;87.90;;;;;;4974710;28;20538;-88
2022/01/18 00:50:30;;;;;;;16.60;3.03;;;5.50;88.00;;;;;;4976555;28;20651;-88
2022/01/18 00:52:56;;;;;;;11.47;2.67;;;5.50;88.10;;;;;;4976517;28;20697;-88
2022/01/18 00:55:25;;;;;;;13.70;2.70;;;5.50;88.00;;;;;;4977863;28;20546;-88
2022/01/18 00:57:50;;;;;;;17.30;4.60;;;5.50;88.10;;;;;;4976472;28;20280;-88
2022/01/18 01:00:17;;;;;;;16.13;3.27;;;5.50;88.30;;;;;;4977942;28;20257;-88
2022/01/18 01:02:42;;;;;;;14.47;2.97;;;5.50;88.20;;;;;;4976353;28;20247;-88
2022/01/18 01:05:08;;;;;;;16.27;4.00;;;5.50;88.30;;;;;;4976949;28;20647;-87
2022/01/18 01:07:37;;;;;;;16.57;2.70;;;5.50;88.30;;;;;;4977706;28;20172;-87
2022/01/18 01:10:03;;;;;;;12.93;2.87;;;5.50;88.30;;;;;;4976281;28;20189;-88
2022/01/18 01:12:29;;;;;;;13.67;2.90;;;5.50;88.20;;;;;;4976169;28;20226;-88
2022/01/18 01:15:02;;;;;;;18.40;2.93;;;5.60;88.20;;;;;;4977387;28;20572;-88
2022/01/18 01:17:49;;;;;;;10.63;2.40;;;5.60;88.00;;;;;;4976009;28;20270;-88
2022/01/18 01:36:47;;;;;;;10.93;3.53;;;5.60;88.30;;;;;;4977433;28;20176;-88
2022/01/18 01:44:47;;;;;;;12.63;2.70;;;5.70;88.90;;;;;;4958442;28;20201;-88
2022/01/18 01:47:19;;;;;;;17.03;3.20;;;5.70;88.90;;;;;;4975632;28;20600;-88
2022/01/18 01:49:48;;;;;;;20.07;2.87;;;5.80;89.00;;;;;;4975796;28;20176;-88
2022/01/18 01:52:14;;;;;;;21.87;3.23;;;5.70;89.00;;;;;;4975739;28;20201;-87
2022/01/18 01:54:40;;;;;;;11.80;2.37;;;5.80;89.10;;;;;;4976790;28;20185;-88
2022/01/18 01:57:07;;;;;;;13.03;2.67;;;5.80;89.10;;;;;;4975422;28;20185;-88
2022/01/18 01:59:32;;;;;;;15.13;2.93;;;5.80;89.00;;;;;;4974833;28;20212;-87
2022/01/18 02:01:58;;;;;;;18.77;3.17;;;5.80;89.20;;;;;;4975747;28;20292;-87
2022/01/18 02:04:24;;;;;;;15.27;2.60;;;5.70;89.50;;;;;;4975380;28;20230;-88
2022/01/18 02:06:50;;;;;;;15.77;2.90;;;5.70;89.60;;;;;;4976804;28;20174;-87
2022/01/18 02:09:18;;;;;;;16.10;2.50;;;5.70;89.90;;;;;;4976420;28;20205;-87
2022/01/18 02:11:44;;;;;;;17.40;3.20;;;5.70;90.10;;;;;;4975044;28;20342;-87
2022/01/18 02:14:16;;;;;;;13.40;2.33;;;5.70;90.10;;;;;;4975171;28;20297;-87
2022/01/18 02:22:12;;;;;;;14.27;2.73;;;5.60;90.10;;;;;;4976743;28;20217;-87
2022/01/18 02:24:38;;;;;;;23.13;4.43;;;5.60;90.10;;;;;;4976214;28;20163;-88
2022/01/18 02:27:03;;;;;;;16.07;2.63;;;5.60;89.90;;;;;;4975070;28;20194;-89
2022/01/18 02:29:29;;;;;;;9.33;2.50;;;5.70;89.70;;;;;;4976257;28;20225;-88
2022/01/18 02:31:56;;;;;;;16.93;2.87;;;5.70;89.30;;;;;;4974972;28;20202;-88
2022/01/18 02:34:22;;;;;;;8.67;2.60;;;5.70;89.10;;;;;;4975216;28;20184;-88
2022/01/18 02:36:48;;;;;;;7.83;2.00;;;5.70;89.10;;;;;;4974703;28;20178;-88
2022/01/18 02:39:19;;;;;;;19.73;2.63;;;5.70;89.10;;;;;;4974956;28;20292;-88
2022/01/18 02:41:52;;;;;;;9.67;2.60;;;5.70;89.30;;;;;;4974691;28;20166;-88
2022/01/18 02:44:18;;;;;;;8.97;2.50;;;5.80;89.50;;;;;;4975451;28;20629;-88
2022/01/18 02:46:43;;;;;;;12.77;2.53;;;5.70;89.80;;;;;;4974506;28;20177;-88
2022/01/18 02:49:09;;;;;;;18.03;2.67;;;5.80;90.00;;;;;;4974791;28;20189;-88
2022/01/18 02:51:35;;;;;;;13.77;3.07;;;5.70;90.10;;;;;;4974392;28;20220;-88
2022/01/18 02:54:07;;;;;;;18.80;3.00;;;5.70;90.20;;;;;;4976545;28;20186;-88
2022/01/18 02:56:36;;;;;;;16.43;3.40;;;5.70;90.30;;;;;;4974371;28;20704;-88
2022/01/18 02:59:30;;;;;;;15.57;2.90;;;5.70;90.40;;;;;;4974250;28;20208;-88
2022/01/18 03:04:42;;;;;;;16.03;2.63;;;5.70;90.30;;;;;;4976029;28;20222;-88
2022/01/18 03:07:08;;;;;;;9.87;2.87;;;5.70;90.30;;;;;;4975307;28;20201;-88
2022/01/18 03:09:34;;;;;;;23.30;3.00;;;5.70;90.30;;;;;;4974028;28;20677;-88
2022/01/18 03:12:01;;;;;;;19.73;3.07;;;5.70;90.20;;;;;;4974043;28;20205;-88
2022/01/18 03:14:27;;;;;;;16.87;3.40;;;5.70;90.10;;;;;;4974402;28;20182;-88
2022/01/18 03:16:52;;;;;;;14.17;2.60;;;5.70;90.20;;;;;;4975174;28;20192;-88
2022/01/18 03:19:18;;;;;;;23.23;4.00;;;5.70;90.10;;;;;;4973898;28;20651;-88
2022/01/18 03:21:44;;;;;;;9.67;2.30;;;5.70;90.20;;;;;;4974160;28;20178;-88
2022/01/18 03:29:35;;;;;;;15.67;3.50;;;5.80;90.10;;;;;;4975297;28;20217;-88
2022/01/18 03:32:01;;;;;;;17.97;3.60;;;5.70;90.00;;;;;;4975122;28;20682;-88
2022/01/18 03:34:27;;;;;;;15.30;2.60;;;5.80;90.00;;;;;;4973957;28;20182;-88
2022/01/18 03:36:53;;;;;;;13.80;2.70;;;5.70;90.00;;;;;;4973683;28;20182;-88
2022/01/18 03:39:19;;;;;;;15.37;2.93;;;5.70;90.10;;;;;;4974277;28;20248;-88
2022/01/18 03:41:55;;;;;;;9.23;2.33;;;5.80;90.10;;;;;;4973848;28;20210;-88
2022/01/18 03:44:23;;;;;;;12.13;2.90;;;5.70;90.10;;;;;;4973636;28;20169;-88
2022/01/18 03:46:50;;;;;;;12.90;2.70;;;5.70;90.30;;;;;;4974713;28;20173;-88
2022/01/18 03:49:16;;;;;;;13.63;2.83;;;5.70;90.40;;;;;;4973347;28;20186;-88
2022/01/18 03:51:41;;;;;;;17.20;4.40;;;5.70;90.40;;;;;;4973478;28;20189;-88
2022/01/18 03:54:07;;;;;;;20.17;4.67;;;5.70;90.50;;;;;;4973829;28;20186;-88
2022/01/18 03:56:33;;;;;;;16.23;3.40;;;5.70;90.60;;;;;;4973584;28;20595;-88
2022/01/18 03:58:58;;;;;;;16.90;3.40;;;5.70;90.70;;;;;;4973327;28;20261;-88
2022/01/18 04:01:24;;;;;;;14.87;3.13;;;5.70;90.80;;;;;;4973381;28;20236;-88
2022/01/18 04:03:50;;;;;;;19.27;3.63;;;5.70;90.80;;;;;;4973614;28;20282;-88
2022/01/18 04:06:15;;;;;;;23.17;3.40;;;5.70;90.90;;;;;;4974463;28;20178;-88
2022/01/18 04:08:41;;;;;;;16.30;3.37;;;5.60;91.10;;;;;;4973301;28;20182;-88
2022/01/18 04:11:06;;;;;;;17.47;6.07;;;5.60;91.20;;;;;;4974403;28;20189;-88
2022/01/18 04:13:32;;;;;;;19.13;4.20;;;5.60;91.20;;;;;;4973487;28;20206;-88
2022/01/18 04:15:58;;;;;;;15.27;3.47;;;5.60;91.20;;;;;;4974355;28;20550;-88
2022/01/18 04:28:56;;;;;;;19.37;3.47;;;5.50;92.00;;;;;;4978623;28;20170;-89
2022/01/18 04:31:23;;;;;;;16.00;4.13;;;5.50;92.00;;;;;;4976955;28;20181;-89
2022/01/18 04:33:49;;;;;;;20.33;3.50;;;5.50;92.10;;;;;;4978420;28;20225;-89
2022/01/18 04:36:15;;;;;;;23.60;3.83;;;5.50;92.10;;;;;;4976893;28;20183;-89
2022/01/18 04:38:41;;;;;;;16.10;3.30;;;5.50;92.20;;;;;;4976937;28;20277;-89
2022/01/18 04:41:11;;;;;;;16.53;3.17;;;5.50;92.40;;;;;;4978201;28;20637;-89
2022/01/18 04:48:54;;;;;;;22.53;4.63;;;5.50;92.70;;;;;;4978440;28;20180;-89
2022/01/18 04:51:20;;;;;;;16.03;3.70;;;5.50;93.00;;;;;;4976664;28;20268;-89
2022/01/18 04:53:54;;;;;;;21.07;4.07;;;5.50;93.10;;;;;;4978062;28;20288;-89
2022/01/18 04:59:09;;;;;;;26.43;3.87;;;5.60;93.40;;;;;;4957415;28;20312;-89
2022/01/18 05:01:37;;;;;;;23.10;3.53;;;5.70;93.60;;;;;;4977193;28;20214;-89
2022/01/18 05:04:02;;;;;;;20.20;3.60;;;5.70;93.70;;;;;;4976204;28;20241;-89
2022/01/18 05:06:28;;;;;;;25.03;4.03;;;5.70;93.70;;;;;;4977556;28;20205;-89
2022/01/18 05:08:55;;;;;;;24.27;4.03;;;5.70;93.70;;;;;;4976312;28;20597;-90
2022/01/18 05:11:23;;;;;;;20.20;3.97;;;5.80;93.80;;;;;;4976285;28;20174;-89
2022/01/18 05:16:43;;;;;;;27.00;3.33;;;5.80;93.90;;;;;;4977686;28;20168;-89
2022/01/18 05:24:23;;;;;;;26.60;4.23;;;5.80;93.90;;;;;;4977317;28;20211;-89
2022/01/18 05:26:49;;;;;;;27.27;4.23;;;5.80;93.90;;;;;;4977357;28;20198;-89
2022/01/18 05:29:15;;;;;;;16.23;3.77;;;5.80;93.90;;;;;;4976752;28;20182;-89
2022/01/18 05:31:42;;;;;;;24.80;4.67;;;5.70;93.90;;;;;;4976291;28;20190;-89
2022/01/18 05:34:07;;;;;;;27.13;4.97;;;5.80;93.90;;;;;;4974543;28;20224;-89
2022/01/18 05:36:33;;;;;;;34.57;6.43;;;5.70;93.90;;;;;;4975913;28;20714;-89
2022/01/18 05:38:59;;;;;;;22.17;4.30;;;5.70;93.90;;;;;;4976886;28;20563;-91
2022/01/18 05:41:25;;;;;;;30.30;4.70;;;5.70;94.00;;;;;;4975679;28;20201;-90
2022/01/18 05:43:50;;;;;;;27.47;4.23;;;5.80;94.00;;;;;;4977247;28;20190;-90
2022/01/18 05:46:16;;;;;;;22.60;4.43;;;5.80;94.00;;;;;;4976893;28;20229;-90
2022/01/18 05:48:42;;;;;;;25.30;4.70;;;5.80;94.00;;;;;;4975657;28;20678;-89
2022/01/18 05:51:08;;;;;;;25.43;5.13;;;5.80;94.00;;;;;;4976419;28;20571;-90
2022/01/18 05:53:35;;;;;;;46.53;5.47;;;5.80;94.00;;;;;;4975645;28;20199;-90
2022/01/18 05:56:02;;;;;;;29.30;5.73;;;5.80;94.10;;;;;;4975757;28;20613;-89
2022/01/18 05:58:27;;;;;;;21.70;5.00;;;5.90;94.10;;;;;;4975313;28;20202;-90
2022/01/18 06:00:54;;;;;;;34.57;5.03;;;5.80;94.10;;;;;;4976557;28;20178;-90
2022/01/18 06:03:32;;;;;;;31.10;5.23;;;5.80;94.10;;;;;;4976319;28;20199;-90
2022/01/18 06:08:42;;;;;;;35.17;5.37;;;5.80;94.10;;;;;;4977022;28;20254;-90
2022/01/18 06:11:08;;;;;;;35.13;5.93;;;5.80;94.10;;;;;;4975166;28;20189;-90
2022/01/18 06:13:34;;;;;;;42.73;5.90;;;5.80;94.10;;;;;;4975278;28;20198;-90
2022/01/18 06:16:00;;;;;;;36.67;5.27;;;5.80;94.20;;;;;;4976354;28;20182;-90
2022/01/18 06:18:26;;;;;;;32.00;6.10;;;5.80;94.20;;;;;;4975076;28;20580;-90
2022/01/18 06:20:51;;;;;;;27.90;5.00;;;5.80;94.10;;;;;;4975043;28;20170;-90
2022/01/18 06:23:17;;;;;;;29.67;6.33;;;5.80;94.10;;;;;;4974911;28;20210;-90
2022/01/18 06:25:43;;;;;;;42.23;5.93;;;5.80;94.20;;;;;;4974965;28;20188;-90
2022/01/18 06:28:09;;;;;;;34.27;6.50;;;5.80;94.20;;;;;;4976126;28;20226;-90
2022/01/18 06:30:34;;;;;;;29.33;5.57;;;5.80;94.20;;;;;;4976119;28;20175;-90
2022/01/18 06:33:00;;;;;;;31.60;5.60;;;5.70;94.30;;;;;;4974701;28;20198;-90
2022/01/18 06:35:26;;;;;;;46.23;7.17;;;5.70;94.30;;;;;;4975962;28;20178;-90
2022/01/18 06:37:52;;;;;;;26.50;5.33;;;5.70;94.30;;;;;;4974820;28;20185;-90
2022/01/18 06:40:17;;;;;;;42.00;6.37;;;5.60;94.20;;;;;;4974669;28;20210;-90
2022/01/18 06:42:43;;;;;;;41.07;7.07;;;5.60;94.30;;;;;;4974545;28;20281;-90
2022/01/18 06:45:10;;;;;;;34.77;6.03;;;5.50;94.20;;;;;;4975451;28;20170;-90
2022/01/18 06:47:37;;;;;;;50.23;6.37;;;5.50;94.20;;;;;;4974910;28;20189;-90
2022/01/18 06:50:07;;;;;;;38.17;6.90;;;5.50;94.30;;;;;;4974540;28;20532;-90
2022/01/18 06:52:33;;;;;;;33.57;6.20;;;5.50;94.30;;;;;;4974612;28;20201;-90
2022/01/18 06:55:01;;;;;;;42.50;7.77;;;5.60;94.30;;;;;;4974407;28;20182;-90
2022/01/18 06:57:27;;;;;;;40.30;7.07;;;5.50;94.30;;;;;;4975205;28;20179;-90
2022/01/18 06:59:53;;;;;;;48.33;8.80;;;5.50;94.30;;;;;;4974259;28;20198;-90
2022/01/18 07:02:18;;;;;;;43.50;6.97;;;5.50;94.30;;;;;;4975401;28;20194;-90
2022/01/18 07:04:44;;;;;;;37.90;6.63;;;5.60;94.30;;;;;;4974232;28;20178;-90
2022/01/18 07:07:09;;;;;;;55.73;7.93;;;5.60;94.40;;;;;;4974246;28;20202;-90
2022/01/18 07:09:35;;;;;;;39.17;7.37;;;5.60;94.40;;;;;;4974164;28;20185;-90
2022/01/18 07:12:08;;;;;;;37.27;7.33;;;5.60;94.40;;;;;;4975281;28;20224;-90
2022/01/18 07:14:33;;;;;;;41.77;8.40;;;5.60;94.40;;;;;;4974076;28;20690;-90
2022/01/18 07:16:59;;;;;;;59.03;7.57;;;5.60;94.40;;;;;;4975359;28;20190;-90
2022/01/18 07:19:24;;;;;;;45.03;7.30;;;5.60;94.40;;;;;;4975040;28;20265;-90
2022/01/18 07:21:50;;;;;;;38.27;6.60;;;5.60;94.40;;;;;;4973856;28;20265;-90
2022/01/18 07:24:36;;;;;;;46.63;6.90;;;5.50;94.30;;;;;;4974791;28;20254;-90
2022/01/18 07:27:01;;;;;;;36.70;6.00;;;5.50;94.40;;;;;;4973843;28;20554;-90
2022/01/18 07:29:27;;;;;;;41.03;6.40;;;5.50;94.40;;;;;;4974940;28;20175;-90
2022/01/18 07:31:53;;;;;;;32.37;5.80;;;5.50;94.40;;;;;;4973740;28;20289;-90
2022/01/18 07:34:18;;;;;;;40.03;6.80;;;5.40;94.40;;;;;;4973695;28;20186;-90
2022/01/18 07:36:44;;;;;;;41.23;7.93;;;5.50;94.40;;;;;;4974929;28;20232;-90
2022/01/18 07:39:10;;;;;;;40.60;7.07;;;5.50;94.40;;;;;;4973549;28;20610;-90
2022/01/18 07:41:36;;;;;;;40.93;6.30;;;5.50;94.40;;;;;;4973576;28;20201;-90
2022/01/18 07:44:01;;;;;;;43.70;6.63;;;5.50;94.40;;;;;;4974267;28;20198;-90
2022/01/18 07:46:27;;;;;;;46.43;7.30;;;5.40;94.50;;;;;;4973513;28;20181;-90
2022/01/18 07:48:52;;;;;;;39.90;6.93;;;5.50;94.50;;;;;;4974944;28;20186;-90
2022/01/18 07:51:18;;;;;;;45.33;6.50;;;5.50;94.50;;;;;;4973563;28;20193;-90
2022/01/18 07:53:44;;;;;;;43.97;8.57;;;5.50;94.50;;;;;;4973393;28;20690;-89
2022/01/18 07:56:10;;;;;;;49.03;6.77;;;5.50;94.50;;;;;;4973510;28;20190;-89
2022/01/18 07:58:36;;;;;;;47.53;6.17;;;5.40;94.50;;;;;;4972789;28;20224;-90
2022/01/18 08:01:01;;;;;;;40.17;6.27;;;5.50;94.50;;;;;;4974792;28;20261;-89
2022/01/18 08:03:29;;;;;;;40.67;6.63;;;5.50;94.50;;;;;;4973223;28;20198;-90
2022/01/18 08:05:55;;;;;;;46.37;6.07;;;5.50;94.50;;;;;;4973586;28;20554;-90
2022/01/18 08:08:21;;;;;;;43.87;6.83;;;5.50;94.50;;;;;;4973371;28;20281;-90
2022/01/18 08:10:47;;;;;;;40.53;7.03;;;5.50;94.40;;;;;;4973328;28;20182;-90
2022/01/18 08:13:13;;;;;;;42.03;7.27;;;5.60;94.50;;;;;;4974390;28;20195;-90
2022/01/18 08:15:40;;;;;;;40.90;6.27;;;5.60;94.40;;;;;;4973584;28;20551;-90
2022/01/18 08:18:11;;;;;;;46.50;7.00;;;5.50;94.30;;;;;;4973203;28;20713;-90
2022/01/18 08:20:37;;;;;;;31.73;5.60;;;5.60;94.30;;;;;;4973286;28;20672;-90
2022/01/18 08:23:03;;;;;;;37.60;5.87;;;5.50;94.20;;;;;;4974351;28;20210;-90
2022/01/18 08:25:29;;;;;;;26.77;4.93;;;5.50;94.20;;;;;;4974345;28;20181;-90
2022/01/18 08:27:55;;;;;;;37.13;5.63;;;5.50;94.20;;;;;;4973470;28;20182;-90
2022/01/18 08:30:21;;;;;;;33.87;5.70;;;5.60;94.20;;;;;;4973655;28;20244;-90
2022/01/18 08:32:48;;;;;;;37.90;5.20;;;5.60;94.30;;;;;;4973198;28;20659;-90
2022/01/18 08:35:14;;;;;;;46.77;6.07;;;5.70;94.30;;;;;;4973956;28;20195;-90
2022/01/18 08:37:40;;;;;;;40.07;5.33;;;5.60;94.20;;;;;;4973066;28;20187;-90
2022/01/18 08:40:07;;;;;;;42.73;6.20;;;5.70;94.20;;;;;;4974233;28;20233;-90
2022/01/18 08:42:33;;;;;;;34.53;5.73;;;5.70;94.20;;;;;;4973054;28;20619;-90
2022/01/18 08:44:59;;;;;;;48.23;6.37;;;5.80;94.20;;;;;;4972886;28;20178;-90
2022/01/18 08:47:25;;;;;;;30.13;4.83;;;5.80;94.10;;;;;;4974284;28;20178;-90
2022/01/18 08:49:52;;;;;;;44.13;5.37;;;5.80;94.10;;;;;;4973724;28;20193;-90
2022/01/18 08:52:18;;;;;;;31.70;5.00;;;5.80;94.10;;;;;;4973146;28;20206;-90
2022/01/18 08:54:44;;;;;;;39.03;5.93;;;5.80;94.10;;;;;;4972945;28;20190;-90
2022/01/18 08:57:12;;;;;;;30.20;5.30;;;5.80;94.00;;;;;;4973449;28;20182;-90
2022/01/18 08:59:39;;;;;;;31.10;5.70;;;5.90;94.00;;;;;;4974043;28;20229;-90
2022/01/18 09:02:06;;;;;;;33.27;5.80;;;5.90;94.00;;;;;;4972780;28;20237;-90
2022/01/18 09:04:33;;;;;;;33.97;5.23;;;5.90;93.90;;;;;;4973284;28;20627;-90
2022/01/18 09:07:02;;;;;;;38.70;6.40;;;6.00;93.90;;;;;;4973534;28;20189;-90
2022/01/18 09:09:28;;;;;;;36.90;6.00;;;6.00;94.00;;;;;;4975183;28;20205;-90
2022/01/18 09:11:53;;;;;;;35.00;5.43;;;6.00;93.90;;;;;;4976305;28;20646;-90
2022/01/18 09:14:19;;;;;;;40.33;6.10;;;6.10;93.90;;;;;;4976290;28;20189;-90
2022/01/18 09:16:45;;;;;;;24.40;5.00;;;6.10;93.80;;;;;;4976309;28;20238;-90
2022/01/18 09:19:11;;;;;;;24.37;5.03;;;6.20;93.80;;;;;;4976019;28;20210;-90
2022/01/18 09:21:37;;;;;;;31.60;5.33;;;6.10;93.70;;;;;;4976292;28;20241;-90
2022/01/18 09:24:04;;;;;;;28.10;4.83;;;6.20;93.70;;;;;;4975842;28;20223;-90
2022/01/18 09:26:29;;;;;;;39.90;5.43;;;6.20;93.70;;;;;;4976076;28;20186;-90
2022/01/18 09:28:55;;;;;;;32.90;5.30;;;6.30;93.60;;;;;;4976005;28;20671;-90
2022/01/18 09:31:21;;;;;;;38.50;7.60;;;6.20;93.60;;;;;;4977436;28;20734;-91
2022/01/18 09:33:47;;;;;;;39.93;6.87;;;6.30;93.60;;;;;;4975914;28;20297;-90
2022/01/18 09:36:12;;;;;;;36.70;5.17;;;6.30;93.60;;;;;;4976215;28;20229;-91
2022/01/18 09:38:38;;;;;;;33.43;5.73;;;6.30;93.50;;;;;;4975709;28;20206;-90
2022/01/18 09:41:10;;;;;;;32.10;5.20;;;6.30;93.50;;;;;;4975808;28;20263;-91
2022/01/18 09:43:38;;;;;;;32.00;5.07;;;6.40;93.50;;;;;;4975663;28;20345;-90
2022/01/18 09:46:05;;;;;;;24.53;4.57;;;6.40;93.40;;;;;;4975658;28;20183;-90
2022/01/18 09:48:31;;;;;;;33.70;6.70;;;6.50;93.40;;;;;;4975654;28;20567;-90
2022/01/18 09:50:59;;;;;;;25.60;5.27;;;6.50;93.30;;;;;;4975547;28;20185;-90
2022/01/18 09:53:26;;;;;;;27.67;4.93;;;6.50;93.20;;;;;;4975424;28;20202;-90
2022/01/18 09:55:53;;;;;;;30.47;4.93;;;6.50;93.00;;;;;;4975510;28;20189;-90
2022/01/18 09:58:20;;;;;;;28.57;5.20;;;6.50;92.90;;;;;;4976583;28;20175;-90
2022/01/18 10:00:46;;;;;;;36.07;6.00;;;6.60;92.90;;;;;;4975513;28;20210;-90
2022/01/18 10:03:28;;;;;;;25.53;4.90;;;6.60;92.60;;;;;;4975365;28;20202;-90
2022/01/18 10:05:55;;;;;;;33.67;7.20;;;6.70;92.60;;;;;;4975420;28;20641;-90
2022/01/18 10:08:22;;;;;;;29.93;5.03;;;6.70;92.60;;;;;;4975381;28;20191;-91
2022/01/18 10:10:53;;;;;;;26.33;5.33;;;6.80;92.60;;;;;;4975652;28;20709;-90
2022/01/18 10:13:28;;;;;;;35.50;4.83;;;6.80;92.60;;;;;;4976593;28;20205;-90
2022/01/18 10:15:58;;;;;;;30.37;4.87;;;6.80;92.50;;;;;;4975954;28;20174;-90
2022/01/18 10:18:35;;;;;;;26.70;5.17;;;6.90;92.50;;;;;;4975121;28;20237;-90
2022/01/18 10:21:01;;;;;;;26.40;6.70;;;6.90;92.30;;;;;;4974379;28;20581;-90
2022/01/18 10:23:27;;;;;;;25.97;4.50;;;6.90;92.10;;;;;;5031034;23;20227;-92
2022/01/18 10:25:54;;;;;;;22.63;4.30;;;7.00;92.10;;;;;;4977458;28;20647;-91
2022/01/18 10:28:34;;;;;;;24.57;4.90;;;7.00;91.90;;;;;;4977407;28;20253;-91
2022/01/18 10:31:05;;;;;;;19.47;3.70;;;7.00;91.60;;;;;;4977628;28;20178;-92
2022/01/18 10:33:37;;;;;;;19.77;4.50;;;7.10;91.40;;;;;;4976997;28;20198;-91
2022/01/18 10:36:10;;;;;;;17.00;3.37;;;7.00;91.10;;;;;;4977437;28;20514;-92
2022/01/18 10:38:37;;;;;;;21.67;5.13;;;7.00;90.80;;;;;;4977104;28;20614;-92
2022/01/18 10:41:23;;;;;;;21.47;3.83;;;7.10;90.80;;;;;;4977789;28;20182;-92
2022/01/18 10:44:04;;;;;;;21.00;4.07;;;7.10;90.90;;;;;;4977786;28;20217;-91
2022/01/18 10:46:38;;;;;;;24.17;4.40;;;7.00;90.70;;;;;;4976510;28;20670;-92
2022/01/18 10:49:06;;;;;;;21.67;3.97;;;7.10;90.80;;;;;;4976208;28;20174;-91
2022/01/18 10:51:34;;;;;;;22.07;3.73;;;7.10;90.80;;;;;;4976890;28;20179;-93
2022/01/18 10:54:04;;;;;;;16.37;3.60;;;7.10;90.90;;;;;;4978329;28;20205;-93
2022/01/18 10:56:44;;;;;;;21.83;3.90;;;7.10;91.00;;;;;;4977834;28;20526;-92
2022/01/18 10:59:21;;;;;;;21.23;3.60;;;7.20;91.10;;;;;;4977682;28;20202;-93
2022/01/18 11:02:14;;;;;;;29.67;4.37;;;7.20;91.10;;;;;;4976852;28;20178;-93
2022/01/18 11:04:49;;;;;;;12.57;3.27;;;7.20;91.00;;;;;;4976820;28;20199;-93
2022/01/18 11:07:17;;;;;;;20.00;4.00;;;7.30;91.00;;;;;;4977172;28;20166;-92
2022/01/18 11:09:43;;;;;;;14.27;4.10;;;7.20;90.90;;;;;;4976332;28;20278;-92
2022/01/18 11:12:10;;;;;;;18.40;3.40;;;7.20;90.80;;;;;;4976199;28;20214;-92
2022/01/18 11:14:38;;;;;;;11.27;3.37;;;7.20;90.70;;;;;;4976517;28;20569;-92
2022/01/18 11:17:06;;;;;;;12.57;3.10;;;7.20;90.70;;;;;;4976214;28;20182;-92
2022/01/18 11:19:35;;;;;;;13.17;2.80;;;7.20;90.90;;;;;;4976024;28;20203;-91
2022/01/18 11:22:08;;;;;;;13.03;3.03;;;7.20;90.70;;;;;;4976204;28;20178;-92
2022/01/18 11:24:36;;;;;;;9.67;3.17;;;7.20;90.60;;;;;;4976146;28;20583;-92
2022/01/18 11:27:06;;;;;;;17.07;3.40;;;7.20;90.70;;;;;;4976061;28;20224;-93
2022/01/18 11:29:32;;;;;;;14.90;2.80;;;7.20;90.70;;;;;;4976142;28;20182;-92
2022/01/18 11:31:59;;;;;;;5.47;2.10;;;7.20;90.70;;;;;;4975418;28;20718;-91
2022/01/18 11:35:01;;;;;;;12.07;2.43;;;7.20;90.70;;;;;;4975833;28;20247;-91
2022/01/18 11:37:45;;;;;;;6.43;2.17;;;7.10;90.10;;;;;;4976852;28;20170;-92
2022/01/18 11:40:14;;;;;;;5.10;2.00;;;7.10;89.30;;;;;;4975510;28;20221;-92
2022/01/18 11:42:53;;;;;;;5.57;1.83;;;7.10;89.20;;;;;;4975084;28;20286;-91
2022/01/18 11:45:24;;;;;;;5.37;2.00;;;7.00;89.20;;;;;;4976355;28;20155;-93
2022/01/18 11:48:05;;;;;;;4.60;2.50;;;7.10;89.60;;;;;;4976519;28;20175;-92
2022/01/18 11:50:37;;;;;;;10.37;2.50;;;7.00;89.80;;;;;;4975989;28;20163;-92
2022/01/18 11:53:26;;;;;;;9.37;2.33;;;7.00;90.00;;;;;;4976874;28;20194;-92
2022/01/18 11:55:57;;;;;;;11.53;3.03;;;7.00;90.30;;;;;;4975590;28;20167;-92
2022/01/18 11:58:25;;;;;;;9.83;3.43;;;7.00;90.20;;;;;;4975296;28;20166;-92
2022/01/18 12:01:00;;;;;;;10.37;2.73;;;7.00;89.90;;;;;;4976208;28;20186;-93
2022/01/18 12:03:28;;;;;;;8.70;2.60;;;7.00;90.00;;;;;;4977163;28;20202;-92
2022/01/18 12:05:57;;;;;;;6.47;2.27;;;7.00;89.60;;;;;;4976508;28;20278;-93
2022/01/18 12:08:43;;;;;;;7.70;2.37;;;7.00;89.80;;;;;;4977333;28;20185;-92
2022/01/18 12:11:19;;;;;;;10.83;2.60;;;7.00;89.90;;;;;;4977573;28;20202;-92
2022/01/18 12:13:46;;;;;;;8.77;2.90;;;7.00;90.00;;;;;;4977538;28;20304;-93
2022/01/18 12:16:22;;;;;;;6.23;2.37;;;7.00;90.00;;;;;;4977200;28;20206;-93
2022/01/18 12:18:59;;;;;;;12.40;3.30;;;6.90;90.00;;;;;;4976532;28;20643;-93
2022/01/18 12:21:28;;;;;;;11.77;2.67;;;6.90;90.10;;;;;;4977339;28;20627;-91
2022/01/18 12:23:56;;;;;;;9.97;3.17;;;6.90;90.20;;;;;;4976590;28;20226;-92
2022/01/18 12:26:39;;;;;;;8.80;2.93;;;6.90;90.40;;;;;;4977474;28;20218;-92
2022/01/18 12:39:50;;;;;;;6.03;2.30;;;6.80;90.40;;;;;;4976617;28;20214;-92
2022/01/18 12:45:00;;;;;;;3.23;2.20;;;6.80;90.70;;;;;;4980778;28;20178;-93
2022/01/18 12:47:26;;;;;;;3.43;2.00;;;6.80;90.80;;;;;;4979902;28;20186;-93
2022/01/18 12:49:52;;;;;;;5.87;1.90;;;6.70;90.90;;;;;;4978966;28;20241;-92
2022/01/18 12:52:18;;;;;;;5.00;2.00;;;6.80;90.90;;;;;;4978213;28;20205;-93
2022/01/18 12:54:47;;;;;;;3.07;2.10;;;6.70;90.80;;;;;;4977735;28;20187;-92
2022/01/18 12:57:23;;;;;;;4.93;2.03;;;6.70;90.60;;;;;;4977607;28;20198;-92
2022/01/18 13:00:07;;;;;;;3.43;1.93;;;6.80;90.50;;;;;;4982961;28;20252;-93
2022/01/18 13:02:34;;;;;;;5.20;2.37;;;6.80;90.40;;;;;;4978178;28;20187;-93
2022/01/18 13:05:04;;;;;;;6.53;2.60;;;6.70;90.40;;;;;;4978611;28;20182;-92
2022/01/18 13:07:30;;;;;;;5.63;3.27;;;6.70;90.50;;;;;;4978235;28;20178;-92
2022/01/18 13:10:04;;;;;;;4.17;2.23;;;6.70;90.30;;;;;;4978441;28;20183;-93
2022/01/18 13:12:31;;;;;;;8.27;2.37;;;6.70;90.20;;;;;;4977601;28;20178;-92
2022/01/18 13:14:59;;;;;;;5.67;2.53;;;6.70;90.20;;;;;;4981609;28;20632;-92
2022/01/18 13:26:44;;;;;;;6.70;2.57;;;6.70;90.50;;;;;;4973677;28;20182;-92
2022/01/18 13:29:19;;;;;;;6.70;2.30;;;6.60;90.70;;;;;;4977577;28;20178;-93
2022/01/18 13:31:48;;;;;;;4.83;2.70;;;6.70;90.80;;;;;;4978658;28;20174;-92
2022/01/18 13:34:16;;;;;;;4.87;2.73;;;6.50;90.80;;;;;;4978691;28;20205;-93
2022/01/18 13:36:55;;;;;;;5.13;2.90;;;6.50;90.70;;;;;;4978258;28;20202;-93
2022/01/18 13:39:28;;;;;;;8.67;3.27;;;6.40;90.80;;;;;;4978039;28;20194;-93
2022/01/18 13:41:55;;;;;;;6.43;3.10;;;6.30;90.70;;;;;;4977940;28;20170;-93
2022/01/18 13:44:21;;;;;;;3.63;2.70;;;6.40;90.80;;;;;;4977951;28;20199;-93
2022/01/18 13:46:47;;;;;;;5.27;3.40;;;6.30;90.70;;;;;;4978114;28;20226;-92
2022/01/18 13:49:13;;;;;;;4.67;3.23;;;6.30;90.50;;;;;;4978153;28;20194;-93
2022/01/18 13:51:57;;;;;;;6.27;3.30;;;6.30;90.50;;;;;;4978341;28;20548;-92
2022/01/18 13:54:27;;;;;;;6.63;3.83;;;6.30;90.50;;;;;;4977901;28;20604;-93
2022/01/18 13:56:53;;;;;;;8.23;4.07;;;6.30;90.50;;;;;;4977297;28;20185;-91
2022/01/18 13:59:25;;;;;;;8.00;4.23;;;6.30;90.50;;;;;;4978970;28;20301;-92
2022/01/18 14:01:51;;;;;;;6.30;4.90;;;6.30;90.50;;;;;;4984279;28;20167;-94
2022/01/18 14:04:19;;;;;;;5.00;4.40;;;6.30;90.30;;;;;;4977153;28;20559;-92
2022/01/18 14:06:46;;;;;;;8.77;4.70;;;6.20;90.30;;;;;;4977373;28;20174;-92
2022/01/18 14:09:13;;;;;;;6.40;4.53;;;6.20;90.30;;;;;;4978351;28;20670;-90
2022/01/18 14:11:51;;;;;;;5.40;5.00;;;6.30;90.30;;;;;;4978261;28;20221;-92
2022/01/18 14:14:21;;;;;;;8.00;5.53;;;6.20;90.30;;;;;;4977215;28;20198;-92
2022/01/18 14:17:14;;;;;;;6.87;5.43;;;6.20;90.30;;;;;;4977044;28;20179;-93
2022/01/18 14:19:43;;;;;;;8.57;5.83;;;6.20;90.40;;;;;;4976872;28;20671;-93
2022/01/18 14:22:16;;;;;;;6.83;6.10;;;6.20;90.50;;;;;;4976729;28;20209;-92
2022/01/18 14:24:46;;;;;;;6.43;5.63;;;6.10;90.50;;;;;;4976818;28;20222;-92